Time;durP1;ratioP1;P1;durP2;ratioP2;P2;SDS_P1;SDS_P2;PMS_P1;PMS_P2;Temp;Humidity;BMP_temperature;BMP_pressure;BME280_temperature;BME280_humidity;BME280_pressure;Samples;Min_cycle;Max_cycle;Signal;HPM_P1;HPM_P2
2022/11/28 00:02:01;;;;;;;21.43;17.10;;;8.20;99.90;;;;;;4891370;29;36953;-72
2022/11/28 00:04:28;;;;;;;21.60;16.83;;;8.20;99.90;;;;;;4885039;29;47269;-73
2022/11/28 00:06:54;;;;;;;25.50;18.40;;;8.20;99.90;;;;;;4883465;29;35554;-72
2022/11/28 00:09:20;;;;;;;22.83;15.93;;;8.30;99.90;;;;;;4897306;29;38745;-72
2022/11/28 00:11:47;;;;;;;19.60;16.13;;;8.30;99.90;;;;;;4883521;29;36742;-72
2022/11/28 00:14:15;;;;;;;15.07;13.37;;;8.30;99.90;;;;;;4891880;29;37593;-72
2022/11/28 00:16:41;;;;;;;20.97;16.37;;;8.40;99.90;;;;;;4882536;29;38493;-72
2022/11/28 00:19:07;;;;;;;20.23;14.43;;;8.40;99.90;;;;;;4874800;29;37943;-72
2022/11/28 00:21:34;;;;;;;15.90;14.23;;;8.40;99.90;;;;;;4894303;29;37961;-72
2022/11/28 00:24:01;;;;;;;23.87;16.33;;;8.50;99.90;;;;;;4885445;29;36279;-73
2022/11/28 00:26:33;;;;;;;20.83;15.73;;;8.50;99.90;;;;;;4888874;29;47730;-72
2022/11/28 00:28:59;;;;;;;16.27;14.57;;;8.50;99.90;;;;;;4896321;29;39181;-73
2022/11/28 00:31:30;;;;;;;16.43;13.40;;;8.50;99.90;;;;;;4893877;29;38153;-74
2022/11/28 00:33:57;;;;;;;18.73;14.37;;;8.50;99.90;;;;;;4889701;28;37696;-73
2022/11/28 00:36:24;;;;;;;19.70;15.07;;;8.50;99.90;;;;;;4872740;29;38781;-74
2022/11/28 00:38:50;;;;;;;16.50;14.27;;;8.50;99.90;;;;;;4887899;29;37409;-73
2022/11/28 00:41:22;;;;;;;15.90;12.33;;;8.50;99.90;;;;;;4876472;29;35750;-73
2022/11/28 00:43:50;;;;;;;17.25;14.27;;;8.50;99.90;;;;;;4875783;29;38955;-73
2022/11/28 00:46:18;;;;;;;19.60;14.93;;;8.60;99.90;;;;;;4886134;29;37581;-73
2022/11/28 00:48:44;;;;;;;13.77;12.03;;;8.60;99.90;;;;;;4890330;29;37513;-73
2022/11/28 00:51:15;;;;;;;15.13;13.53;;;8.50;99.90;;;;;;4888651;29;38764;-73
2022/11/28 00:53:42;;;;;;;18.10;14.10;;;8.60;99.90;;;;;;4883597;29;36091;-74
2022/11/28 00:56:11;;;;;;;15.80;13.50;;;8.60;99.90;;;;;;4891542;29;38528;-73
2022/11/28 00:58:38;;;;;;;19.60;13.97;;;8.60;99.90;;;;;;4874610;29;37298;-73
2022/11/28 01:01:19;;;;;;;16.57;14.53;;;8.60;99.90;;;;;;4884427;29;36917;-73
2022/11/28 01:03:46;;;;;;;14.73;12.67;;;8.60;99.90;;;;;;4890498;29;49893;-73
2022/11/28 01:06:19;;;;;;;18.93;14.13;;;8.60;99.90;;;;;;4894765;29;39395;-73
2022/11/28 01:08:45;;;;;;;20.63;16.43;;;8.60;99.90;;;;;;4894383;28;39542;-73
2022/11/28 01:11:12;;;;;;;18.00;14.53;;;8.70;99.90;;;;;;4896913;29;35798;-73
2022/11/28 01:13:39;;;;;;;18.47;15.73;;;8.70;99.90;;;;;;4898199;29;36340;-73
2022/11/28 01:16:06;;;;;;;17.20;15.20;;;8.70;99.90;;;;;;4894881;29;39912;-73
2022/11/28 01:18:32;;;;;;;17.03;15.17;;;8.70;99.90;;;;;;4878890;29;37611;-74
2022/11/28 01:20:58;;;;;;;21.23;18.20;;;8.70;99.90;;;;;;4890538;29;37715;-74
2022/11/28 01:23:24;;;;;;;19.30;16.57;;;8.80;99.90;;;;;;4895600;29;37586;-74
2022/11/28 01:25:50;;;;;;;20.57;18.40;;;8.70;99.90;;;;;;4884695;29;39383;-73
2022/11/28 01:28:16;;;;;;;18.73;16.83;;;8.80;99.90;;;;;;4895956;28;39496;-74
2022/11/28 01:30:42;;;;;;;21.20;17.10;;;8.80;99.90;;;;;;4894323;29;39611;-73
2022/11/28 01:33:08;;;;;;;18.00;16.07;;;8.70;99.90;;;;;;4875255;29;37214;-74
2022/11/28 01:35:35;;;;;;;18.07;15.23;;;8.80;99.90;;;;;;4896158;29;38364;-73
2022/11/28 01:38:01;;;;;;;17.23;15.40;;;8.80;99.90;;;;;;4878388;29;38665;-74
2022/11/28 01:40:30;;;;;;;19.07;16.30;;;8.80;99.90;;;;;;4894927;29;38040;-73
2022/11/28 01:42:56;;;;;;;18.70;15.67;;;8.80;99.90;;;;;;4900928;29;38468;-74
2022/11/28 01:45:25;;;;;;;16.03;14.43;;;8.80;99.90;;;;;;4896003;29;38388;-74
2022/11/28 01:47:54;;;;;;;18.17;15.40;;;8.80;99.90;;;;;;4884399;29;37145;-74
2022/11/28 01:50:21;;;;;;;15.70;14.10;;;8.80;99.90;;;;;;4901700;29;38283;-74
2022/11/28 01:52:52;;;;;;;18.63;16.27;;;8.90;99.90;;;;;;4900307;29;37486;-74
2022/11/28 01:55:22;;;;;;;18.13;15.50;;;8.90;99.90;;;;;;4886447;29;39613;-74
2022/11/28 01:57:50;;;;;;;15.80;14.10;;;8.90;99.90;;;;;;4901081;29;39042;-74
2022/11/28 02:03:13;;;;;;;17.87;15.97;;;8.90;99.90;;;;;;5172805;23;20050;-77
2022/11/28 02:05:40;;;;;;;17.03;15.23;;;8.90;99.90;;;;;;4851907;29;38364;-77
2022/11/28 02:08:08;;;;;;;16.93;13.87;;;8.90;99.90;;;;;;4854054;29;38182;-77
2022/11/28 02:11:13;;;;;;;15.80;14.13;;;8.90;99.90;;;;;;4855362;29;40159;-78
2022/11/28 02:14:05;;;;;;;16.83;14.90;;;8.90;99.90;;;;;;4845557;29;48867;-78
2022/11/28 02:16:37;;;;;;;11.30;9.77;;;8.90;99.90;;;;;;4858169;29;49042;-77
2022/11/28 02:19:22;;;;;;;12.98;11.48;;;8.90;99.90;;;;;;4857265;29;38821;-78
2022/11/28 02:22:15;;;;;;;11.20;9.90;;;8.80;99.90;;;;;;4865109;29;36981;-78
2022/11/28 02:24:47;;;;;;;;;;;8.80;99.90;;;;;;4856651;29;48605;-77
2022/11/28 02:27:28;;;;;;;10.97;9.27;;;8.80;99.90;;;;;;4857035;29;38090;-78
2022/11/28 02:30:21;;;;;;;11.03;9.80;;;8.80;99.90;;;;;;4858230;29;38220;-77
2022/11/28 02:32:53;;;;;;;;;;;8.70;99.90;;;;;;4838732;29;46655;-77
2022/11/28 02:36:02;;;;;;;11.17;9.97;;;8.70;99.90;;;;;;4852041;29;35975;-78
2022/11/28 02:38:53;;;;;;;16.67;13.73;;;8.70;99.90;;;;;;4850109;29;38849;-77
2022/11/28 02:41:57;;;;;;;18.23;13.83;;;8.70;99.90;;;;;;4855078;29;38214;-77
2022/11/28 02:44:42;;;;;;;13.83;12.43;;;8.70;99.90;;;;;;4854448;29;36441;-78
2022/11/28 02:47:13;;;;;;;14.43;12.10;;;8.70;99.90;;;;;;4851622;29;38540;-77
2022/11/28 02:49:48;;;;;;;15.87;11.80;;;8.70;99.90;;;;;;4858131;29;38184;-78
2022/11/28 02:52:18;;;;;;;14.63;11.87;;;8.60;99.90;;;;;;4842482;29;37281;-77
2022/11/28 02:54:46;;;;;;;13.20;11.77;;;8.60;99.90;;;;;;4856861;29;38686;-77
2022/11/28 02:57:12;;;;;;;14.90;11.93;;;8.60;99.90;;;;;;4843454;29;36038;-77
2022/11/28 02:59:38;;;;;;;14.90;12.77;;;8.60;99.90;;;;;;4857074;29;38866;-77
2022/11/28 03:02:13;;;;;;;14.33;12.70;;;8.60;99.90;;;;;;4858880;29;38566;-77
2022/11/28 03:04:50;;;;;;;16.43;12.77;;;8.60;99.90;;;;;;4857688;29;38557;-78
2022/11/28 03:07:16;;;;;;;21.07;13.97;;;8.60;99.90;;;;;;4840583;29;37307;-78
2022/11/28 03:09:50;;;;;;;18.20;14.77;;;8.60;99.90;;;;;;4855128;29;37486;-77
2022/11/28 03:12:37;;;;;;;18.23;14.10;;;8.50;99.90;;;;;;4856041;29;39529;-77
2022/11/28 03:15:06;;;;;;;15.80;14.10;;;8.60;99.90;;;;;;4853790;29;37962;-77
2022/11/28 03:17:44;;;;;;;17.93;15.37;;;8.50;99.90;;;;;;4850935;29;48317;-77
2022/11/28 03:20:35;;;;;;;20.70;15.43;;;8.60;99.90;;;;;;4854099;29;38879;-77
2022/11/28 03:23:10;;;;;;;18.53;16.33;;;8.60;99.90;;;;;;4854691;29;38469;-77
2022/11/28 03:25:46;;;;;;;24.13;20.43;;;8.60;99.90;;;;;;4856545;29;47272;-77
2022/11/28 03:28:39;;;;;;;21.10;18.70;;;8.60;99.90;;;;;;4854284;29;37046;-78
2022/11/28 03:31:17;;;;;;;21.02;18.05;;;8.60;99.90;;;;;;4855602;29;37526;-76
2022/11/28 03:33:49;;;;;;;23.47;19.27;;;8.60;99.90;;;;;;4855353;29;38439;-76
2022/11/28 03:36:42;;;;;;;23.65;20.75;;;8.60;99.90;;;;;;4853334;29;38872;-75
2022/11/28 03:39:10;;;;;;;;;;;8.50;99.90;;;;;;4846466;29;36733;-77
2022/11/28 03:41:51;;;;;;;24.30;20.60;;;8.60;99.90;;;;;;4861314;29;37507;-75
2022/11/28 03:44:25;;;;;;;26.60;20.70;;;8.50;99.90;;;;;;4855711;29;38346;-77
2022/11/28 03:46:55;;;;;;;29.07;21.77;;;8.50;99.90;;;;;;4855951;29;37416;-76
2022/11/28 03:49:30;;;;;;;26.37;22.33;;;8.50;99.90;;;;;;4837371;29;38077;-76
2022/11/28 03:52:04;;;;;;;27.67;22.00;;;8.50;99.90;;;;;;4855278;29;37657;-77
2022/11/28 03:54:35;;;;;;;29.33;23.20;;;8.60;99.90;;;;;;4857577;29;47383;-77
2022/11/28 03:57:06;;;;;;;29.23;23.57;;;8.50;99.90;;;;;;4861753;29;37065;-77
2022/11/28 03:59:34;;;;;;;32.13;25.17;;;8.50;99.90;;;;;;4858708;29;47254;-76
2022/11/28 04:02:13;;;;;;;27.67;22.23;;;8.50;99.90;;;;;;4847258;29;37735;-76
2022/11/28 04:05:19;;;;;;;31.97;23.67;;;8.50;99.90;;;;;;4840656;29;47231;-76
2022/11/28 04:07:57;;;;;;;27.07;22.07;;;8.60;99.90;;;;;;4834750;29;47218;-76
2022/11/28 04:10:43;;;;;;;29.10;21.93;;;8.50;99.90;;;;;;4854770;29;37648;-76
2022/11/28 04:13:22;;;;;;;26.43;22.70;;;8.50;99.90;;;;;;4851193;29;37822;-76
2022/11/28 04:16:10;;;;;;;36.00;23.00;;;8.50;99.90;;;;;;4836824;29;38337;-76
2022/11/28 04:18:56;;;;;;;35.13;24.37;;;8.50;99.90;;;;;;4855478;29;47237;-76
2022/11/28 04:21:49;;;;;;;30.10;21.80;;;8.60;99.90;;;;;;4842183;29;35623;-77
2022/11/28 04:24:23;;;;;;;33.17;24.92;;;8.50;99.90;;;;;;4857809;29;38907;-76
2022/11/28 04:26:58;;;;;;;29.87;22.67;;;8.50;99.90;;;;;;4860059;29;37889;-77
2022/11/28 04:29:29;;;;;;;28.20;23.87;;;8.50;99.90;;;;;;4839943;29;36945;-77
2022/11/28 04:31:57;;;;;;;35.80;24.83;;;8.50;99.90;;;;;;4860460;29;36850;-77
2022/11/28 04:34:26;;;;;;;37.07;27.57;;;8.50;99.90;;;;;;4854570;29;37594;-76
2022/11/28 04:36:56;;;;;;;34.07;25.63;;;8.50;99.90;;;;;;4858036;29;37207;-76
2022/11/28 04:39:25;;;;;;;38.93;28.93;;;8.50;99.90;;;;;;4840587;29;38116;-77
2022/11/28 04:42:15;;;;;;;35.10;27.47;;;8.50;99.90;;;;;;4860428;29;38853;-76
2022/11/28 04:44:58;;;;;;;34.77;26.67;;;8.50;99.90;;;;;;4858087;29;48311;-76
2022/11/28 04:47:25;;;;;;;36.70;26.50;;;8.50;99.90;;;;;;4855505;29;38394;-77
2022/11/28 04:49:52;;;;;;;40.33;30.00;;;8.50;99.90;;;;;;4841232;29;40565;-77
2022/11/28 04:52:39;;;;;;;36.73;26.97;;;8.50;99.90;;;;;;4856949;29;35206;-76
2022/11/28 04:55:26;;;;;;;37.50;27.63;;;8.50;99.90;;;;;;4852756;29;39519;-76
2022/11/28 04:58:08;;;;;;;37.60;27.60;;;8.50;99.90;;;;;;4846772;29;38931;-76
2022/11/28 05:00:36;;;;;;;45.73;29.40;;;8.50;99.90;;;;;;4852108;29;49050;-77
2022/11/28 05:03:04;;;;;;;42.30;29.83;;;8.50;99.90;;;;;;4858799;29;37182;-76
2022/11/28 05:05:30;;;;;;;47.17;30.93;;;8.50;99.90;;;;;;4850460;29;49109;-76
2022/11/28 05:07:58;;;;;;;43.57;29.77;;;8.50;99.90;;;;;;4839814;29;37321;-77
2022/11/28 05:10:24;;;;;;;41.13;28.00;;;8.50;99.90;;;;;;4839165;29;37107;-76
2022/11/28 05:12:50;;;;;;;53.50;32.70;;;8.50;99.90;;;;;;4855563;29;36519;-76
2022/11/28 05:15:17;;;;;;;50.03;30.57;;;8.50;99.90;;;;;;4852591;29;39375;-76
2022/11/28 05:17:45;;;;;;;47.47;31.47;;;8.50;99.90;;;;;;4856015;29;38354;-76
2022/11/28 05:20:12;;;;;;;53.57;32.37;;;8.50;99.90;;;;;;4854380;29;37080;-77
2022/11/28 05:22:38;;;;;;;49.63;30.47;;;8.50;99.90;;;;;;4858199;29;36379;-76
2022/11/28 05:25:05;;;;;;;63.30;35.10;;;8.50;99.90;;;;;;4843320;29;37644;-75
2022/11/28 05:27:31;;;;;;;54.07;31.40;;;8.60;99.90;;;;;;4853480;29;47775;-76
2022/11/28 05:29:57;;;;;;;53.80;33.23;;;8.50;99.90;;;;;;4841681;29;37574;-75
2022/11/28 05:32:23;;;;;;;53.43;32.40;;;8.60;99.90;;;;;;4837188;29;36831;-75
2022/11/28 05:34:49;;;;;;;54.30;32.17;;;8.60;99.90;;;;;;4853332;29;35736;-75
2022/11/28 05:37:15;;;;;;;62.67;35.37;;;8.50;99.90;;;;;;4850224;29;37970;-76
2022/11/28 05:39:42;;;;;;;55.30;33.67;;;8.60;99.90;;;;;;4854796;29;37938;-75
2022/11/28 05:42:08;;;;;;;62.00;35.47;;;8.60;99.90;;;;;;4854593;29;37482;-75
2022/11/28 05:44:35;;;;;;;61.00;35.23;;;8.60;99.90;;;;;;4852457;29;37434;-75
2022/11/28 05:47:01;;;;;;;77.33;38.37;;;8.50;99.90;;;;;;4846202;29;38782;-76
2022/11/28 05:49:28;;;;;;;55.90;35.20;;;8.60;99.90;;;;;;4851689;29;38790;-75
2022/11/28 05:51:54;;;;;;;60.10;36.47;;;8.60;99.90;;;;;;4837533;29;36327;-76
2022/11/28 05:54:20;;;;;;;63.77;36.57;;;8.60;99.90;;;;;;4846885;29;38551;-76
2022/11/28 05:56:46;;;;;;;59.70;34.77;;;8.60;99.90;;;;;;4837305;29;35479;-76
2022/11/28 05:59:13;;;;;;;67.13;38.63;;;8.70;99.90;;;;;;4848019;29;38373;-75
2022/11/28 06:01:39;;;;;;;74.83;38.93;;;8.60;99.90;;;;;;4852258;29;36794;-76
2022/11/28 06:04:05;;;;;;;74.17;38.83;;;8.60;99.90;;;;;;4852959;29;38902;-76
2022/11/28 06:06:33;;;;;;;70.23;37.70;;;8.60;99.90;;;;;;4855536;29;38741;-77
2022/11/28 06:09:00;;;;;;;67.80;38.93;;;8.70;99.90;;;;;;4842824;29;37387;-77
2022/11/28 06:11:28;;;;;;;63.50;38.00;;;8.60;99.90;;;;;;4852975;29;37382;-77
2022/11/28 06:13:55;;;;;;;81.17;40.70;;;8.60;99.90;;;;;;4844364;29;37397;-77
2022/11/28 06:16:24;;;;;;;63.03;37.07;;;8.70;99.90;;;;;;4842493;29;37164;-77
2022/11/28 06:18:59;;;;;;;123.20;49.23;;;8.70;99.90;;;;;;4836936;29;38314;-77
2022/11/28 06:21:27;;;;;;;79.23;40.27;;;8.70;99.90;;;;;;4830219;29;38495;-76
2022/11/28 06:23:53;;;;;;;93.33;41.63;;;8.70;99.90;;;;;;4831815;29;40390;-77
2022/11/28 06:26:22;;;;;;;77.60;40.63;;;8.70;99.90;;;;;;4850444;29;37317;-76
2022/11/28 06:28:48;;;;;;;78.70;40.17;;;8.70;99.90;;;;;;4853248;29;38163;-78
2022/11/28 06:31:20;;;;;;;120.20;46.53;;;8.70;99.90;;;;;;4849910;29;37515;-78
2022/11/28 06:33:47;;;;;;;77.20;39.05;;;8.80;99.90;;;;;;4846389;29;37982;-77
2022/11/28 06:36:15;;;;;;;82.20;40.53;;;8.80;99.90;;;;;;4853230;29;38309;-76
2022/11/28 06:38:42;;;;;;;93.00;44.37;;;8.80;99.90;;;;;;4854773;29;39025;-77
2022/11/28 06:41:11;;;;;;;74.93;39.00;;;8.80;99.90;;;;;;4834539;29;37508;-76
2022/11/28 06:43:37;;;;;;;97.77;42.07;;;8.80;99.90;;;;;;4855851;29;38436;-77
2022/11/28 06:46:03;;;;;;;75.07;39.30;;;8.90;99.90;;;;;;4859909;29;39784;-77
2022/11/28 06:48:29;;;;;;;77.50;40.93;;;8.80;99.90;;;;;;4841632;29;46400;-76
2022/11/28 06:51:04;;;;;;;76.07;38.33;;;8.90;99.90;;;;;;4839932;29;36077;-78
2022/11/28 06:53:30;;;;;;;76.63;38.67;;;8.90;99.90;;;;;;4842386;29;46852;-81
2022/11/28 06:55:57;;;;;;;81.90;40.40;;;8.90;99.90;;;;;;4860922;29;38683;-79
2022/11/28 06:58:23;;;;;;;93.57;44.20;;;8.80;99.90;;;;;;4853649;29;38153;-81
2022/11/28 07:00:49;;;;;;;77.57;38.97;;;8.90;99.90;;;;;;4860474;29;39426;-81
2022/11/28 07:03:15;;;;;;;92.97;42.27;;;8.90;99.90;;;;;;4860972;29;39456;-79
2022/11/28 07:05:41;;;;;;;103.70;41.73;;;8.90;99.90;;;;;;4845046;29;38153;-78
2022/11/28 07:08:07;;;;;;;91.10;40.73;;;8.90;99.90;;;;;;4859760;29;36849;-78
2022/11/28 07:10:33;;;;;;;95.40;41.73;;;8.90;99.90;;;;;;4861731;29;36006;-79
2022/11/28 07:13:00;;;;;;;84.43;39.77;;;8.90;99.90;;;;;;4840407;29;37676;-79
2022/11/28 07:15:26;;;;;;;85.03;41.13;;;8.90;99.90;;;;;;4858004;29;37185;-79
2022/11/28 07:17:53;;;;;;;91.37;39.93;;;8.80;99.90;;;;;;4859492;29;38053;-79
2022/11/28 07:20:20;;;;;;;82.20;40.47;;;8.90;99.90;;;;;;4844716;29;38005;-80
2022/11/28 07:22:49;;;;;;;77.77;39.90;;;8.90;99.90;;;;;;4862958;29;38476;-79
2022/11/28 07:25:15;;;;;;;98.90;40.83;;;8.90;99.90;;;;;;4858915;29;38419;-80
2022/11/28 07:27:42;;;;;;;91.40;40.47;;;8.90;99.90;;;;;;4857927;29;38290;-80
2022/11/28 07:30:09;;;;;;;93.60;42.37;;;8.90;99.90;;;;;;4840276;29;36429;-79
2022/11/28 07:32:39;;;;;;;87.03;40.70;;;8.90;99.90;;;;;;4857548;29;37587;-80
2022/11/28 07:35:07;;;;;;;96.50;42.23;;;8.90;99.90;;;;;;4838600;29;37156;-80
2022/11/28 07:37:33;;;;;;;106.63;43.70;;;9.00;99.90;;;;;;4859506;29;39148;-80
2022/11/28 07:39:59;;;;;;;91.87;41.03;;;9.00;99.90;;;;;;4863100;29;36565;-80
2022/11/28 07:42:26;;;;;;;95.37;41.70;;;9.00;99.90;;;;;;4857352;29;38538;-80
2022/11/28 07:44:53;;;;;;;93.83;40.27;;;9.00;99.90;;;;;;4856741;29;37925;-80
2022/11/28 07:47:19;;;;;;;103.03;42.00;;;9.00;99.90;;;;;;4856315;29;38445;-79
2022/11/28 07:49:45;;;;;;;87.93;39.83;;;9.00;99.90;;;;;;4855030;29;37616;-79
2022/11/28 07:52:11;;;;;;;90.50;39.07;;;9.10;99.90;;;;;;4861820;29;38966;-81
2022/11/28 07:54:37;;;;;;;91.17;42.30;;;9.10;99.90;;;;;;4845316;29;38389;-79
2022/11/28 07:57:03;;;;;;;107.20;44.17;;;9.10;99.90;;;;;;4844623;29;37131;-78
2022/11/28 07:59:30;;;;;;;91.70;41.37;;;9.10;99.90;;;;;;4861734;29;37411;-80
2022/11/28 08:01:56;;;;;;;100.20;42.77;;;9.10;99.90;;;;;;4861669;29;39226;-79
2022/11/28 08:04:22;;;;;;;92.90;42.83;;;9.10;99.90;;;;;;4854445;29;38347;-79
2022/11/28 08:06:48;;;;;;;118.23;44.87;;;9.10;99.90;;;;;;4856887;29;39342;-79
2022/11/28 08:09:14;;;;;;;90.77;41.13;;;9.20;99.90;;;;;;4851042;29;36831;-79
2022/11/28 08:11:41;;;;;;;99.07;41.67;;;9.20;99.90;;;;;;4861562;29;38729;-80
2022/11/28 08:14:09;;;;;;;82.07;41.20;;;9.20;99.90;;;;;;4863130;29;20054;-79
2022/11/28 08:16:35;;;;;;;83.43;41.60;;;9.20;99.90;;;;;;4848353;29;38360;-79
2022/11/28 08:19:02;;;;;;;78.70;38.97;;;9.20;99.90;;;;;;4862923;29;37527;-80
2022/11/28 08:21:30;;;;;;;76.17;37.90;;;9.20;99.90;;;;;;4840971;29;37473;-79
2022/11/28 08:24:01;;;;;;;76.93;39.70;;;9.20;99.90;;;;;;4840436;29;37190;-80
2022/11/28 08:26:28;;;;;;;77.10;36.70;;;9.20;99.90;;;;;;4859820;29;37715;-79
2022/11/28 08:28:54;;;;;;;84.97;39.30;;;9.30;99.90;;;;;;4858745;29;36740;-80
2022/11/28 08:31:26;;;;;;;69.50;36.17;;;9.30;99.90;;;;;;4858963;29;38896;-80
2022/11/28 08:33:55;;;;;;;63.43;35.43;;;9.30;99.90;;;;;;4844947;29;37124;-79
2022/11/28 08:36:21;;;;;;;79.27;37.70;;;9.40;99.90;;;;;;4843181;29;38764;-80
2022/11/28 08:38:48;;;;;;;81.50;39.50;;;9.40;99.90;;;;;;4844605;29;37184;-79
2022/11/28 08:41:20;;;;;;;68.67;36.07;;;9.50;99.90;;;;;;4844372;29;39424;-79
2022/11/28 08:43:48;;;;;;;65.15;34.28;;;9.50;99.90;;;;;;4850062;29;37133;-79
2022/11/28 08:46:20;;;;;;;58.83;33.33;;;9.50;99.90;;;;;;4853849;29;37164;-79
2022/11/28 08:48:48;;;;;;;61.88;33.70;;;9.50;99.90;;;;;;4844193;29;38000;-80
2022/11/28 08:51:16;;;;;;;52.20;31.73;;;9.60;99.90;;;;;;4856358;29;39047;-79
2022/11/28 08:53:43;;;;;;;54.40;32.70;;;9.50;99.90;;;;;;4835147;29;37363;-80
2022/11/28 08:56:10;;;;;;;58.33;33.00;;;9.50;99.90;;;;;;4830426;29;38238;-79
2022/11/28 08:58:36;;;;;;;55.27;30.40;;;9.50;99.90;;;;;;4844444;29;37526;-80
2022/11/28 09:01:03;;;;;;;57.40;32.60;;;9.50;99.90;;;;;;4843890;29;38835;-80
2022/11/28 09:03:30;;;;;;;50.43;31.13;;;9.60;99.90;;;;;;4842311;29;49092;-78
2022/11/28 09:06:01;;;;;;;42.47;28.60;;;9.60;99.90;;;;;;4852470;29;37033;-77
2022/11/28 09:08:27;;;;;;;53.43;29.83;;;9.60;99.90;;;;;;4846090;29;36163;-78
2022/11/28 09:10:53;;;;;;;45.00;29.00;;;9.70;99.90;;;;;;4843954;29;37735;-77
2022/11/28 09:13:19;;;;;;;45.13;28.63;;;9.70;99.90;;;;;;4830539;29;38767;-80
2022/11/28 09:15:46;;;;;;;47.37;28.63;;;9.70;99.90;;;;;;4840580;29;37679;-78
2022/11/28 09:18:13;;;;;;;43.63;28.02;;;9.80;99.90;;;;;;4838744;29;36402;-78
2022/11/28 09:20:40;;;;;;;42.77;28.10;;;10.00;99.90;;;;;;4851561;29;37175;-77
2022/11/28 09:23:08;;;;;;;43.93;27.90;;;10.10;99.90;;;;;;4840410;29;38392;-78
2022/11/28 09:25:36;;;;;;;40.38;26.98;;;10.00;99.90;;;;;;4839963;29;37266;-78
2022/11/28 09:28:02;;;;;;;44.13;27.23;;;9.90;99.90;;;;;;4833162;29;35763;-77
2022/11/28 09:30:28;;;;;;;42.17;27.97;;;9.90;99.90;;;;;;4842236;29;47707;-76
2022/11/28 09:32:54;;;;;;;40.43;27.60;;;10.00;99.90;;;;;;4843334;29;37412;-78
2022/11/28 09:35:20;;;;;;;42.57;27.60;;;10.10;99.90;;;;;;4839798;29;38208;-78
2022/11/28 09:37:46;;;;;;;55.83;31.70;;;10.00;99.90;;;;;;4836892;29;36010;-79
2022/11/28 09:40:38;;;;;;;46.67;30.07;;;10.20;99.90;;;;;;4841138;29;38330;-78
2022/11/28 09:43:14;;;;;;;53.87;32.13;;;10.00;99.90;;;;;;4840687;29;38316;-79
2022/11/28 09:45:41;;;;;;;54.20;31.43;;;10.10;99.90;;;;;;4839665;29;37487;-79
2022/11/28 09:48:24;;;;;;;53.13;32.67;;;10.10;99.90;;;;;;4838915;29;37496;-77
2022/11/28 09:50:54;;;;;;;53.07;33.23;;;10.10;99.90;;;;;;4837956;29;37772;-78
2022/11/28 09:53:28;;;;;;;52.87;32.27;;;10.10;99.90;;;;;;4841001;29;39076;-78
2022/11/28 09:56:13;;;;;;;54.93;32.77;;;10.10;99.90;;;;;;4841171;29;38251;-77
2022/11/28 09:58:57;;;;;;;56.40;32.73;;;10.10;99.90;;;;;;4843153;29;47317;-78
2022/11/28 10:01:36;;;;;;;55.30;33.93;;;10.20;99.90;;;;;;4822706;29;37698;-79
2022/11/28 10:04:29;;;;;;;64.63;35.03;;;10.10;99.90;;;;;;4844411;29;37684;-77
2022/11/28 10:07:01;;;;;;;59.55;33.35;;;10.10;99.90;;;;;;4841063;29;38189;-78
2022/11/28 10:09:49;;;;;;;55.55;33.05;;;10.10;99.90;;;;;;4839823;29;37325;-79
2022/11/28 10:12:30;;;;;;;66.00;33.57;;;10.10;99.90;;;;;;4850088;29;38017;-79
2022/11/28 10:15:28;;;;;;;62.30;32.87;;;10.20;99.90;;;;;;4835519;29;38579;-77
2022/11/28 10:18:34;;;;;;;48.43;30.77;;;10.30;99.90;;;;;;4812877;29;46812;-77
2022/11/28 10:21:09;;;;;;;53.37;31.67;;;10.30;99.90;;;;;;4843822;29;47578;-77
2022/11/28 10:23:43;;;;;;;63.30;33.60;;;10.40;99.90;;;;;;4845998;29;48149;-77
2022/11/28 10:26:34;;;;;;;55.40;30.80;;;10.40;99.90;;;;;;4843750;29;39305;-76
2022/11/28 10:29:10;;;;;;;62.27;33.53;;;10.40;99.90;;;;;;4836449;29;38493;-77
2022/11/28 10:31:42;;;;;;;48.17;30.53;;;10.40;99.90;;;;;;4834743;29;46954;-77
2022/11/28 10:34:29;;;;;;;49.35;30.52;;;10.40;99.90;;;;;;4845882;29;38305;-79
2022/11/28 10:37:04;;;;;;;48.97;30.43;;;10.40;99.90;;;;;;4853075;29;38044;-78
2022/11/28 10:39:33;;;;;;;63.90;31.67;;;10.40;99.90;;;;;;4853705;29;47815;-79
2022/11/28 10:42:13;;;;;;;52.67;32.58;;;10.50;99.90;;;;;;4840550;29;35940;-76
2022/11/28 10:44:54;;;;;;;54.17;31.37;;;10.60;99.90;;;;;;4843644;29;48462;-77
2022/11/28 10:47:49;;;;;;;53.30;30.47;;;10.50;99.90;;;;;;4843636;29;38610;-76
2022/11/28 10:50:32;;;;;;;51.77;30.63;;;10.50;99.90;;;;;;4833535;29;37114;-76
2022/11/28 10:53:18;;;;;;;;;;;10.50;99.90;;;;;;4839700;29;34879;-77
2022/11/28 10:56:03;;;;;;;51.73;29.47;;;10.50;99.90;;;;;;4838758;29;48852;-77
2022/11/28 10:58:46;;;;;;;63.50;33.40;;;10.50;99.90;;;;;;4825792;29;38268;-77
2022/11/28 11:01:12;;;;;;;55.43;31.13;;;10.50;99.90;;;;;;4843008;29;38577;-78
2022/11/28 11:03:39;;;;;;;52.50;30.47;;;10.50;99.90;;;;;;4844906;29;36642;-77
2022/11/28 11:06:06;;;;;;;54.00;31.70;;;10.50;99.90;;;;;;4837265;29;37838;-77
2022/11/28 11:08:37;;;;;;;52.40;31.57;;;10.50;99.90;;;;;;4840900;29;37882;-79
2022/11/28 11:11:15;;;;;;;59.60;33.00;;;10.50;99.90;;;;;;4842722;29;39752;-78
2022/11/28 11:14:08;;;;;;;54.00;30.80;;;10.50;99.90;;;;;;4838697;29;46912;-79
2022/11/28 11:16:48;;;;;;;54.85;31.80;;;10.50;99.90;;;;;;4841965;29;47682;-78
2022/11/28 11:19:28;;;;;;;51.88;30.73;;;10.60;99.90;;;;;;4840718;29;37754;-79
2022/11/28 11:22:19;;;;;;;49.67;28.83;;;10.60;99.90;;;;;;4854611;29;37467;-79
2022/11/28 11:25:14;;;;;;;45.50;28.70;;;10.60;99.90;;;;;;4842078;29;48708;-78
2022/11/28 11:27:52;;;;;;;49.28;29.83;;;10.80;99.90;;;;;;4839606;29;46978;-77
2022/11/28 11:30:41;;;;;;;51.33;30.60;;;10.90;99.90;;;;;;4839348;29;37674;-78
2022/11/28 11:33:15;;;;;;;47.72;28.67;;;10.90;99.90;;;;;;4838518;29;38193;-78
2022/11/28 11:35:44;;;;;;;52.55;28.35;;;10.90;99.90;;;;;;4844173;29;36080;-78
2022/11/28 11:38:19;;;;;;;45.22;26.67;;;11.10;99.90;;;;;;4848769;29;39079;-78
2022/11/28 11:40:46;;;;;;;39.90;26.40;;;11.00;99.90;;;;;;4841868;29;36468;-78
2022/11/28 11:43:31;;;;;;;47.83;26.25;;;11.20;99.90;;;;;;4837956;29;38589;-79
2022/11/28 11:46:08;;;;;;;50.63;26.65;;;11.40;99.90;;;;;;4841845;29;36143;-78
2022/11/28 11:48:46;;;;;;;41.55;23.98;;;11.40;99.90;;;;;;4843303;29;48534;-78
2022/11/28 11:51:27;;;;;;;46.88;24.20;;;11.50;99.90;;;;;;4840513;29;38475;-78
2022/11/28 11:54:26;;;;;;;40.03;23.13;;;11.50;99.90;;;;;;4832195;29;37116;-79
2022/11/28 11:56:55;;;;;;;39.13;21.45;;;11.60;99.90;;;;;;4799233;29;47480;-79
2022/11/28 11:59:40;;;;;;;37.08;21.60;;;11.60;99.90;;;;;;4836834;29;38358;-79
2022/11/28 12:02:32;;;;;;;35.80;22.25;;;11.60;99.90;;;;;;4844247;29;37511;-77
2022/11/28 12:05:04;;;;;;;35.00;19.43;;;11.80;99.90;;;;;;4853125;29;37085;-79
2022/11/28 12:07:47;;;;;;;36.72;18.52;;;11.80;99.90;;;;;;4838060;29;48136;-80
2022/11/28 12:10:17;;;;;;;43.15;19.77;;;11.90;99.90;;;;;;4845833;29;37925;-77
2022/11/28 12:12:43;;;;;;;37.35;19.73;;;11.90;99.90;;;;;;4841728;29;38167;-78
2022/11/28 12:15:29;;;;;;;32.85;18.30;;;12.00;99.90;;;;;;4839683;29;38592;-79
2022/11/28 12:18:12;;;;;;;35.70;18.70;;;12.20;99.90;;;;;;4839222;29;36015;-77
2022/11/28 12:21:08;;;;;;;33.95;19.65;;;12.00;99.90;;;;;;4849521;29;46446;-78
2022/11/28 12:23:54;;;;;;;33.22;18.48;;;12.00;99.90;;;;;;4840232;29;47742;-77
2022/11/28 12:26:36;;;;;;;37.42;17.95;;;12.00;99.90;;;;;;4838267;29;35589;-77
2022/11/28 12:29:28;;;;;;;38.95;17.45;;;11.90;99.90;;;;;;4843433;29;37694;-76
2022/11/28 12:32:03;;;;;;;35.67;18.50;;;11.70;99.90;;;;;;4836182;29;46513;-77
2022/11/28 12:34:52;;;;;;;31.33;15.07;;;11.70;99.90;;;;;;4841037;29;48378;-77
2022/11/28 12:37:40;;;;;;;24.77;14.38;;;11.70;99.90;;;;;;4836741;29;37376;-78
2022/11/28 12:40:18;;;;;;;27.50;15.63;;;11.60;99.90;;;;;;4841794;29;37481;-78
2022/11/28 12:43:21;;;;;;;28.75;14.13;;;11.70;99.90;;;;;;4842845;29;38282;-76
2022/11/28 12:46:00;;;;;;;26.85;13.20;;;11.70;99.90;;;;;;4813357;29;47329;-77
2022/11/28 12:48:57;;;;;;;32.97;15.93;;;11.70;99.90;;;;;;4853282;29;37253;-77
2022/11/28 12:51:32;;;;;;;32.53;13.68;;;11.60;99.90;;;;;;4837328;29;37323;-77
2022/11/28 12:54:10;;;;;;;35.60;16.10;;;11.60;99.90;;;;;;4847635;29;37780;-77
2022/11/28 12:56:48;;;;;;;36.50;12.80;;;11.60;99.90;;;;;;4846588;29;47377;-77
2022/11/28 12:59:30;;;;;;;33.22;13.38;;;11.50;99.90;;;;;;4853473;29;38111;-76
2022/11/28 13:02:48;;;;;;;35.35;13.43;;;11.50;99.90;;;;;;4837976;29;38263;-77
2022/11/28 13:05:41;;;;;;;26.02;12.32;;;11.50;99.90;;;;;;4838960;29;48607;-76
2022/11/28 13:08:10;;;;;;;34.42;12.98;;;11.50;99.90;;;;;;4837758;29;38986;-77
2022/11/28 13:10:49;;;;;;;29.58;13.20;;;11.40;99.90;;;;;;4835792;29;38283;-77